• Join FlightAware (Why Join?)
  • Login
  • US Flag 
02:06PM EDT


 

Airport Tracker/Info


-or-


 

Live Flight TrackerFlight Track Log ✈ ASQ4244 ✈ 01-May-2012 ✈ KIAH - KGRR

Flight Track Log - Related Links

Times and Time Zones

All times are in EDT time to prevent confusion due to time zone crossing. See the ASQ4244 flight status page for this flight to view local times or setup timezone preferences in your user account.

Time Position Orientation Groundspeed Altitude Reporting Facility
EDT Latitude Longitude Course Direction KTS MPH feet Rate Location/Type
02:03PM 29.9781 -95.2983 13° North 177 204 700  Level Houston Center
02:05PM 30.0875 -95.2686 North 269 310 4,000 1,920 Climbing Houston Center
02:06PM 30.1647 -95.2642 North 276 318 6,000 2,220 Climbing Houston Center
02:07PM 30.2403 -95.2547 23° Northeast 281 323 8,500 2,100 Climbing Houston Center
02:08PM 30.3183 -95.2167 24° Northeast 276 318 10,300 1,440 Climbing Houston Center
02:09PM 30.4094 -95.1694 25° Northeast 313 360 11,400 1,500 Climbing Houston Center
02:10PM 30.5047 -95.1172 25° Northeast 353 406 13,300 1,800 Climbing Houston Center
02:11PM 30.6019 -95.0650 28° Northeast 367 422 15,000 1,620 Climbing Houston Center
02:12PM 30.6994 -95.0056 28° Northeast 377 434 16,600 1,380 Climbing Houston Center
02:14PM 30.8608 -94.9064 28° Northeast 383 441 18,900 1,380 Climbing Fort Worth Center
02:15PM 30.9597 -94.8456 29° Northeast 388 447 20,400 1,380 Climbing Fort Worth Center
02:16PM 31.0586 -94.7822 28° Northeast 388 447 21,700 1,380 Climbing Fort Worth Center
02:17PM 31.1739 -94.7111 31° Northeast 407 468 23,200 1,500 Climbing Fort Worth Center
02:18PM 31.2728 -94.6403 30° Northeast 407 468 24,700 1,740 Climbing Fort Worth Center
02:19PM 31.3714 -94.5739 31° Northeast 407 468 26,700 1,980 Climbing Fort Worth Center
02:20PM 31.4700 -94.5053 31° Northeast 407 468 28,700 1,980 Climbing Fort Worth Center
02:21PM 31.5583 -94.4439 31° Northeast 393 452 30,700 1,680 Climbing Fort Worth Center
02:22PM 31.6486 -94.3800 30° Northeast 379 436 32,100 1,200 Climbing Fort Worth Center
02:23PM 31.7369 -94.3211 31° Northeast 368 423 33,200 1,020 Climbing Fort Worth Center
02:24PM 31.8294 -94.2567 31° Northeast 373 429 34,200 900 Climbing Fort Worth Center
02:25PM 31.9236 -94.1897 30° Northeast 373 429 35,000 360 Climbing Fort Worth Center
02:26PM 32.0200 -94.1228 30° Northeast 378 435 35,000 300 Level Fort Worth Center
02:27PM 32.1247 -94.0503 34° Northeast 404 465 35,600 600 Climbing Fort Worth Center
02:28PM 32.2144 -93.9783 30° Northeast 417 480 36,300 600 Climbing Fort Worth Center
02:29PM 32.3211 -93.9053 31° Northeast 429 494 36,900 300 Climbing Fort Worth Center
02:30PM 32.4336 -93.8247 19° North 434 499 37,000  Climbing Fort Worth Center
02:31PM 32.5492 -93.7783 22° Northeast 447 514 37,000  Level Fort Worth Center
02:32PM 32.6728 -93.7189 22° Northeast 459 528 37,000  Level Fort Worth Center
02:33PM 32.7942 -93.6597 21° North 464 534 37,000  Level Fort Worth Center
02:34PM 32.9175 -93.6025 23° Northeast 469 540 37,000  Level Fort Worth Center
02:35PM 33.0389 -93.5403 22° Northeast 469 540 37,000  Level Fort Worth Center
02:36PM 33.1644 -93.4803 21° North 469 540 37,000  Level Fort Worth Center
02:37PM 33.2878 -93.4225 23° Northeast 469 540 37,000  Level Fort Worth Center
02:38PM 33.4131 -93.3597 22° Northeast 469 540 37,000  Level Fort Worth Center
02:39PM 33.5383 -93.2992 21° North 469 540 37,000  Level Fort Worth Center
02:40PM 33.6617 -93.2411 22° Northeast 469 540 37,000  Level Fort Worth Center
02:41PM 33.7989 -93.1744 23° Northeast 479 551 37,000  Level Memphis Center
02:42PM 33.9211 -93.1133 22° Northeast 479 551 37,000  Level Memphis Center
02:43PM 34.0456 -93.0519 23° Northeast 479 551 37,000  Level Memphis Center
02:44PM 34.1681 -92.9906 22° Northeast 479 551 37,000  Level Memphis Center
02:45PM 34.2925 -92.9289 22° Northeast 479 551 37,000  Level Memphis Center
02:46PM 34.4147 -92.8697 23° Northeast 479 551 37,000  Level Memphis Center
02:47PM 34.5389 -92.8053 28° Northeast 479 551 37,000  Level Memphis Center
02:48PM 34.6594 -92.7281 31° Northeast 479 551 37,000  Level Memphis Center
02:49PM 34.7736 -92.6453 30° Northeast 485 558 37,000  Level Memphis Center
02:50PM 34.8900 -92.5622 32° Northeast 480 552 37,000  Level Memphis Center
02:51PM 35.0042 -92.4739 28° Northeast 480 552 37,000  Level Memphis Center
02:52PM 35.1242 -92.3958 32° Northeast 480 552 37,000  Level Memphis Center
02:53PM 35.2425 -92.3069 30° Northeast 485 558 37,000  Level Memphis Center
02:54PM 35.3586 -92.2258 29° Northeast 480 552 37,000  Level Memphis Center
02:55PM 35.4764 -92.1442 31° Northeast 489 563 37,000  Level Memphis Center
02:56PM 35.5944 -92.0575 31° Northeast 487 560 37,000  Level Memphis Center
02:57PM 35.7208 -91.9653 30° Northeast 487 560 37,000  Level Memphis Center
02:58PM 35.8408 -91.8806 32° Northeast 487 560 37,000  Level Memphis Center
02:59PM 35.9544 -91.7931 30° Northeast 493 567 37,000  Level Memphis Center
03:00PM 36.0722 -91.7078 30° Northeast 488 562 37,000  Level Memphis Center
03:01PM 36.1772 -91.6322 30° Northeast 488 562 37,000  Level Memphis Center
03:02PM 36.2947 -91.5467 30° Northeast 488 562 37,000  Level Memphis Center
03:03PM 36.4144 -91.4606 31° Northeast 488 562 37,000  Level Memphis Center
03:04PM 36.5444 -91.3617 31° Northeast 494 568 37,000  Level Memphis Center
03:05PM 36.6578 -91.2778 31° Northeast 489 563 37,000  Level Memphis Center
03:07PM 36.8250 -91.1511 30° Northeast 501 577 37,000  Level Kansas City Center
03:08PM 36.9536 -91.0569 30° Northeast 495 570 37,000  Level Kansas City Center
03:09PM 37.0703 -90.9736 33° Northeast 484 557 37,000  Level Kansas City Center
03:10PM 37.1761 -90.8881 31° Northeast 484 557 37,000  Level Kansas City Center
03:11PM 37.2922 -90.8014 31° Northeast 484 557 37,000  Level Kansas City Center
03:12PM 37.4083 -90.7122 31° Northeast 484 557 37,000  Level Kansas City Center
03:13PM 37.5244 -90.6225 31° Northeast 479 551 37,000  Level Kansas City Center
03:14PM 37.6425 -90.5325 32° Northeast 479 551 37,000  Level Kansas City Center
03:15PM 37.7583 -90.4422 30° Northeast 479 551 37,000  Level Kansas City Center
03:16PM 37.8764 -90.3544 31° Northeast 484 557 37,000  Level Kansas City Center
03:17PM 38.0003 -90.2606 32° Northeast 484 557 37,000  Level Kansas City Center
03:18PM 38.1078 -90.1753 32° Northeast 484 557 37,000  Level Kansas City Center
03:19PM 38.2356 -90.0753 32° Northeast 479 551 37,000  Level Kansas City Center
03:20PM 38.3386 -89.9922 31° Northeast 484 557 37,000  Level Kansas City Center
03:21PM 38.4542 -89.9031 32° Northeast 479 551 37,000  Level Kansas City Center
03:22PM 38.5694 -89.8108 32° Northeast 488 562 37,000  Level Kansas City Center
03:23PM 38.7008 -89.7067 31° Northeast 493 567 37,000  Level Kansas City Center
03:24PM 38.8061 -89.6250 33° Northeast 487 560 37,000  Level Kansas City Center
03:25PM 38.9308 -89.5206 31° Northeast 487 560 37,000  Level Kansas City Center
03:26PM 39.0381 -89.4386 32° Northeast 480 552 37,000  Level Kansas City Center
03:27PM 39.1628 -89.3361 33° Northeast 480 552 37,000  Level Kansas City Center
03:28PM 39.2797 -89.2392 33° Northeast 480 552 37,000  Level Kansas City Center
03:29PM 39.3900 -89.1450 37° Northeast 480 552 37,000  Level Kansas City Center
03:30PM 39.5000 -89.0375 38° Northeast 485 558 37,000  Level Kansas City Center
03:31PM 39.6114 -88.9239 37° Northeast 496 571 37,000  Level Kansas City Center
03:33PM 39.8514 -88.6903 38° Northeast 515 593 37,000  Level Chicago Center
03:34PM 39.9589 -88.5808 36° Northeast 502 578 37,000  Level Chicago Center
03:35PM 40.0686 -88.4764 38° Northeast 497 572 37,000  Level Chicago Center
03:36PM 40.1761 -88.3664 35° Northeast 492 566 37,000  Level Chicago Center
03:37PM 40.2858 -88.2639 38° Northeast 492 566 37,000  Level Chicago Center
03:38PM 40.3908 -88.1561 38° Northeast 487 560 37,000  Level Chicago Center
03:39PM 40.5003 -88.0447 38° Northeast 487 560 37,000  Level Chicago Center
03:40PM 40.6094 -87.9333 37° Northeast 487 560 37,000 -420 Level Chicago Center
03:41PM 40.7183 -87.8242 37° Northeast 487 560 36,200 -900 Descending Chicago Center
03:42PM 40.8294 -87.7144 39° Northeast 487 560 35,300 -960 Descending Chicago Center
03:43PM 40.9383 -87.5992 37° Northeast 487 560 34,300 -1,020 Descending Chicago Center
03:44PM 41.0450 -87.4917 38° Northeast 487 560 33,300 -900 Descending Chicago Center
03:45PM 41.1658 -87.3667 38° Northeast 487 560 32,500 -1,140 Descending Chicago Center
03:46PM 41.2744 -87.2528 37° Northeast 487 560 31,100 -1,500 Descending Chicago Center
03:47PM 41.3828 -87.1442 38° Northeast 492 566 29,600 -1,500 Descending Chicago Center
03:48PM 41.4931 -87.0294 38° Northeast 492 566 28,100 -1,560 Descending Chicago Center
03:49PM 41.6014 -86.9147 39° Northeast 497 572 26,500 -1,680 Descending Chicago Center
03:50PM 41.7092 -86.7992 39° Northeast 497 572 24,800 -1,320 Descending Chicago Center
03:51PM 41.8131 -86.6864 48° Northeast 497 572 23,900 -1,200 Descending Chicago Center
03:52PM 41.8994 -86.5572 49° Northeast 472 543 22,500 -1,500 Descending Chicago Center
03:53PM 41.9839 -86.4250 41° Northeast 461 531 21,000 -1,500 Descending Chicago Center
03:54PM 42.0789 -86.3144 35° Northeast 456 525 19,600 -1,620 Descending Chicago Center
03:55PM 42.1744 -86.2231 36° Northeast 443 510 17,800 -1,800 Descending Chicago Center
03:56PM 42.2658 -86.1342 36° Northeast 419 482 16,000 -1,800 Descending Chicago Center
03:57PM 42.3592 -86.0425 35° Northeast 419 482 14,300 -2,100 Descending Chicago Center
03:58PM 42.4464 -85.9589 36° Northeast 404 465 11,900 -1,740 Descending Chicago Center
03:59PM 42.5294 -85.8756 29° Northeast 387 445 10,900 -840 Descending Chicago Center
04:00PM 42.6089 -85.8147 27° Northeast 354 407 10,300 -1,140 Descending Chicago Center
04:01PM 42.6722 -85.7717 23° Northeast 319 367 8,700 -1,740 Descending Chicago Center
04:02PM 42.7417 -85.7308 23° Northeast 284 327 6,900 -1,800 Descending Chicago Center
04:03PM 42.8053 -85.6933 27° Northeast 264 304 5,100 -1,680 Descending Chicago Center
04:04PM 42.8583 -85.6561 71° East 237 273 3,600 -1,560 Descending Chicago Center
04:05PM 42.8711 -85.6044 83° East 147 169 2,000 -1,320 Descending Chicago Center
04:06PM 42.8758 -85.5531 70° East 136 157 1,000 -600 Descending Chicago Center
04:07PM 42.8906 -85.4983 70° East 131 151 900 -120 Descending Chicago Center